Time;durP1;ratioP1;P1;durP2;ratioP2;P2;SDS_P1;SDS_P2;PMS_P1;PMS_P2;Temp;Humidity;BMP_temperature;BMP_pressure;BME280_temperature;BME280_humidity;BME280_pressure;Samples;Min_cycle;Max_cycle;Signal;HPM_P1;HPM_P2
2024/01/18 00:01:20;;;;;;;23.55;12.20;;;;;;;0.19;100.00;99238.16;5082689;28;20078;-68
2024/01/18 00:04:08;;;;;;;20.30;12.52;;;;;;;0.20;100.00;99237.09;5080280;28;20112;-67
2024/01/18 00:06:56;;;;;;;18.42;12.10;;;;;;;0.20;100.00;99237.09;5084532;28;20413;-68
2024/01/18 00:09:45;;;;;;;18.60;11.93;;;;;;;0.20;100.00;99234.41;5096035;28;20055;-68
2024/01/18 00:12:35;;;;;;;28.10;12.60;;;;;;;0.20;100.00;99236.28;5078905;28;20052;-68
2024/01/18 00:15:24;;;;;;;18.65;12.15;;;;;;;0.18;100.00;99246.41;5084074;28;20515;-67
2024/01/18 00:18:12;;;;;;;19.58;12.75;;;;;;;0.19;100.00;99245.34;5061047;28;20060;-69
2024/01/18 00:21:00;;;;;;;20.40;12.30;;;;;;;0.19;100.00;99259.56;5068989;28;20169;-66
2024/01/18 00:23:48;;;;;;;25.88;12.43;;;;;;;0.19;100.00;99256.06;5094259;28;20048;-68
2024/01/18 00:26:36;;;;;;;18.13;12.35;;;;;;;0.20;100.00;99268.41;5090503;28;20067;-67
2024/01/18 00:29:24;;;;;;;18.83;12.10;;;;;;;0.20;100.00;99273.78;5094944;28;20048;-68
2024/01/18 00:32:12;;;;;;;18.02;11.75;;;;;;;0.21;100.00;99270.84;5095289;28;20071;-68
2024/01/18 00:35:00;;;;;;;19.00;11.93;;;;;;;0.22;100.00;99274.34;5080587;28;20127;-68
2024/01/18 00:37:50;;;;;;;20.13;11.85;;;;;;;0.24;100.00;99269.56;5094080;28;20101;-67
2024/01/18 00:40:38;;;;;;;20.65;11.65;;;;;;;0.23;100.00;99267.13;5081280;28;20055;-68
2024/01/18 00:43:26;;;;;;;19.17;11.70;;;;;;;0.22;100.00;99282.38;5080395;28;20040;-67
2024/01/18 00:46:17;;;;;;;18.15;11.70;;;;;;;0.22;100.00;99277.03;5077920;28;20087;-67
2024/01/18 00:49:05;;;;;;;17.88;11.90;;;;;;;0.20;100.00;99279.13;5094267;28;20056;-67
2024/01/18 00:51:53;;;;;;;18.63;11.32;;;;;;;0.20;100.00;99279.94;5045083;28;20060;-67
2024/01/18 00:54:41;;;;;;;18.35;11.35;;;;;;;0.20;100.00;99290.66;5073811;28;20059;-67
2024/01/18 00:57:29;;;;;;;22.15;12.13;;;;;;;0.22;100.00;99293.09;5034895;28;20118;-66
2024/01/18 01:00:17;;;;;;;21.65;11.75;;;;;;;0.23;100.00;99296.59;5034254;28;20050;-67
2024/01/18 01:03:05;;;;;;;19.33;11.40;;;;;;;0.24;100.00;99296.38;5020456;28;20037;-66
2024/01/18 01:05:53;;;;;;;19.27;11.50;;;;;;;0.24;100.00;99299.03;5020223;28;20045;-68
2024/01/18 01:08:42;;;;;;;20.10;11.38;;;;;;;0.23;100.00;99299.25;5046693;28;20045;-68
2024/01/18 01:11:30;;;;;;;19.70;11.88;;;;;;;0.25;100.00;99297.97;5038292;28;20045;-67
2024/01/18 01:14:18;;;;;;;19.13;11.38;;;;;;;0.29;100.00;99304.50;5025616;28;20186;-67
2024/01/18 01:17:06;;;;;;;18.77;11.55;;;;;;;0.29;100.00;99307.16;5053342;28;20044;-67
2024/01/18 01:19:54;;;;;;;22.80;11.93;;;;;;;0.27;100.00;99311.94;5052947;28;20343;-67
2024/01/18 01:22:42;;;;;;;26.88;11.80;;;;;;;0.26;100.00;99321.00;5053943;28;20060;-66
2024/01/18 01:25:31;;;;;;;18.27;11.10;;;;;;;0.25;100.00;99330.13;4991398;28;20085;-66
2024/01/18 01:28:19;;;;;;;21.88;12.50;;;;;;;0.24;100.00;99317.78;5021599;28;20051;-67
2024/01/18 01:31:07;;;;;;;19.50;11.55;;;;;;;0.25;100.00;99323.94;5034987;28;20076;-66
2024/01/18 01:33:54;;;;;;;20.98;11.82;;;;;;;0.24;100.00;99317.78;5054228;28;20036;-67
2024/01/18 01:36:43;;;;;;;21.23;11.63;;;;;;;0.25;100.00;99315.91;5072273;28;20125;-68
2024/01/18 01:39:31;;;;;;;20.02;12.35;;;;;;;0.24;100.00;99320.47;5048897;28;20076;-67
2024/01/18 01:42:19;;;;;;;19.50;11.93;;;;;;;0.25;100.00;99324.75;5023676;28;20049;-67
2024/01/18 01:45:07;;;;;;;19.58;12.40;;;;;;;0.27;100.00;99325.34;5035754;28;20041;-67
2024/01/18 01:47:55;;;;;;;18.90;10.75;;;;;;;0.30;100.00;99326.72;5072190;28;20055;-66
2024/01/18 01:50:43;;;;;;;20.55;11.95;;;;;;;0.28;100.00;99324.28;5059378;28;20464;-68
2024/01/18 01:53:31;;;;;;;19.27;11.48;;;;;;;0.26;100.00;99329.06;5019527;28;20469;-67
2024/01/18 01:56:20;;;;;;;17.90;11.55;;;;;;;0.24;100.00;99333.84;5048134;28;20446;-66
2024/01/18 01:59:10;;;;;;;18.38;11.43;;;;;;;0.24;100.00;99341.91;5050237;28;20045;-66
2024/01/18 02:01:58;;;;;;;20.05;11.77;;;;;;;0.23;100.00;99348.28;5057023;28;20048;-66
2024/01/18 02:04:46;;;;;;;16.83;11.23;;;;;;;0.22;100.00;99346.66;5058330;28;20054;-67
2024/01/18 02:07:38;;;;;;;18.70;11.35;;;;;;;0.20;100.00;99348.75;5022961;28;20044;-66
2024/01/18 02:10:26;;;;;;;18.58;11.38;;;;;;;0.19;100.00;99347.13;5040274;28;20036;-66
2024/01/18 02:13:15;;;;;;;21.00;12.18;;;;;;;0.17;100.00;99344.69;5024682;28;20045;-67
2024/01/18 02:16:03;;;;;;;20.45;11.63;;;;;;;0.19;100.00;99352.47;5052622;28;20413;-67
2024/01/18 02:18:52;;;;;;;20.17;11.27;;;;;;;0.20;100.00;99351.44;5038087;28;20048;-69
2024/01/18 02:21:40;;;;;;;18.52;11.35;;;;;;;0.21;100.00;99345.84;5032153;28;20045;-67
2024/01/18 02:24:44;;;;;;;19.27;11.70;;;;;;;0.24;100.00;99349.09;5026061;28;20433;-67
2024/01/18 02:27:32;;;;;;;16.23;10.95;;;;;;;0.24;100.00;99355.28;5038186;28;20505;-66
2024/01/18 02:30:20;;;;;;;19.33;11.50;;;;;;;0.22;100.00;99346.66;5043440;28;20037;-67
2024/01/18 02:33:08;;;;;;;20.15;12.48;;;;;;;0.18;100.00;99351.66;5067092;28;20049;-67
2024/01/18 02:35:56;;;;;;;18.35;11.30;;;;;;;0.18;100.00;99349.00;5043265;28;20067;-68
2024/01/18 02:38:46;;;;;;;20.77;11.68;;;;;;;0.20;100.00;99343.41;5072659;28;20149;-68
2024/01/18 02:41:34;;;;;;;17.98;11.65;;;;;;;0.23;100.00;99345.59;5046801;28;20045;-66
2024/01/18 02:44:22;;;;;;;17.27;11.40;;;;;;;0.25;100.00;99340.84;5023942;28;20052;-66
2024/01/18 02:47:10;;;;;;;19.48;11.85;;;;;;;0.28;100.00;99344.91;5025291;28;20142;-66
2024/01/18 02:49:58;;;;;;;18.15;11.52;;;;;;;0.29;100.00;99350.03;5040759;28;20198;-66
2024/01/18 02:52:46;;;;;;;20.02;11.82;;;;;;;0.27;100.00;99362.03;5068456;28;20481;-67
2024/01/18 02:55:34;;;;;;;15.38;10.80;;;;;;;0.28;100.00;99355.63;5078884;28;20083;-67
2024/01/18 02:58:22;;;;;;;23.30;11.80;;;;;;;0.30;100.00;99357.00;5067056;28;20052;-67
2024/01/18 03:01:10;;;;;;;17.10;11.32;;;;;;;0.28;100.00;99359.09;5063129;28;20045;-65
2024/01/18 03:03:58;;;;;;;20.13;11.25;;;;;;;0.28;100.00;99359.09;5046184;28;20052;-67
2024/01/18 03:06:46;;;;;;;18.13;11.38;;;;;;;0.30;100.00;99364.22;5077509;28;20056;-67
2024/01/18 03:09:34;;;;;;;20.45;12.18;;;;;;;0.30;100.00;99356.19;5061529;28;20080;-67
2024/01/18 03:12:22;;;;;;;16.85;11.80;;;;;;;0.31;100.00;99355.94;5057908;28;20059;-66
2024/01/18 03:15:11;;;;;;;19.73;11.48;;;;;;;0.28;100.00;99351.06;5053612;28;20056;-67
2024/01/18 03:17:59;;;;;;;19.75;11.10;;;;;;;0.28;100.00;99356.41;5076631;28;20072;-66
2024/01/18 03:20:47;;;;;;;18.63;11.18;;;;;;;0.28;100.00;99359.09;5028185;28;20075;-67
2024/01/18 03:23:35;;;;;;;18.80;11.80;;;;;;;0.26;100.00;99363.88;5058052;28;20419;-66
2024/01/18 03:26:23;;;;;;;19.38;11.30;;;;;;;0.26;100.00;99357.72;5048578;28;20109;-67
2024/01/18 03:29:11;;;;;;;17.98;11.27;;;;;;;0.24;100.00;99376.72;5061710;28;20060;-67
2024/01/18 03:31:59;;;;;;;17.92;10.93;;;;;;;0.19;100.00;99373.91;5051431;28;20218;-67
2024/01/18 03:34:47;;;;;;;18.25;11.05;;;;;;;0.20;100.00;99376.34;5060166;28;20040;-66
2024/01/18 03:37:35;;;;;;;18.77;11.30;;;;;;;0.21;100.00;99372.63;5060675;28;20136;-67
2024/01/18 03:40:23;;;;;;;19.40;11.45;;;;;;;0.22;100.00;99384.16;5060880;28;20079;-67
2024/01/18 03:43:12;;;;;;;18.30;10.63;;;;;;;0.21;100.00;99387.88;5064137;28;20561;-65
2024/01/18 03:46:00;;;;;;;20.70;11.02;;;;;;;0.21;100.00;99394.03;5062773;28;20049;-67
2024/01/18 03:48:48;;;;;;;17.75;11.15;;;;;;;0.20;100.00;99396.97;5062120;28;20059;-67
2024/01/18 03:51:36;;;;;;;17.20;11.38;;;;;;;0.19;100.00;99384.63;5076660;28;20071;-67
2024/01/18 03:54:24;;;;;;;17.20;10.98;;;;;;;0.19;100.00;99379.25;5059542;28;20052;-67
2024/01/18 03:57:12;;;;;;;16.55;10.63;;;;;;;0.19;100.00;99384.63;5091924;28;20044;-66
2024/01/18 04:00:00;;;;;;;20.38;10.70;;;;;;;0.20;100.00;99396.97;5082039;28;20503;-68
2024/01/18 04:02:51;;;;;;;18.38;11.05;;;;;;;0.20;100.00;99402.34;5094548;28;20123;-69
2024/01/18 04:05:40;;;;;;;23.48;12.02;;;;;;;0.17;100.00;99400.13;5032865;28;20048;-66
2024/01/18 04:08:28;;;;;;;19.02;11.85;;;;;;;0.16;100.00;99401.16;5082205;28;20040;-67
2024/01/18 04:11:16;;;;;;;17.77;10.80;;;;;;;0.16;100.00;99401.16;5053768;28;20071;-68
2024/01/18 04:14:04;;;;;;;18.33;10.48;;;;;;;0.13;100.00;99398.97;5076042;28;20066;-66
2024/01/18 04:16:52;;;;;;;20.40;10.43;;;;;;;0.10;100.00;99412.84;5073050;28;20113;-67
2024/01/18 04:19:40;;;;;;;16.00;10.40;;;;;;;0.06;100.00;99408.97;5070225;28;20044;-67
2024/01/18 04:22:28;;;;;;;20.45;11.43;;;;;;;0.03;100.00;99412.13;5061774;28;20118;-66
2024/01/18 04:25:16;;;;;;;17.35;10.95;;;;;;;0.00;100.00;99410.75;5040687;28;20575;-67
2024/01/18 04:28:04;;;;;;;18.15;10.20;;;;;;;0.04;100.00;99414.56;5070759;28;20110;-66
2024/01/18 04:30:52;;;;;;;17.38;9.98;;;;;;;0.07;100.00;99415.97;5074007;28;20458;-68
2024/01/18 04:33:40;;;;;;;17.70;10.45;;;;;;;0.07;100.00;99419.44;5045002;28;20353;-66
2024/01/18 04:36:28;;;;;;;17.70;10.10;;;;;;;0.10;100.00;99426.22;5076743;28;20062;-66
2024/01/18 04:39:17;;;;;;;17.27;10.48;;;;;;;0.05;100.00;99426.06;5060810;28;20052;-66
2024/01/18 04:42:08;;;;;;;19.33;10.30;;;;;;;0.04;100.00;99425.28;5091270;28;20056;-66
2024/01/18 04:44:57;;;;;;;16.20;10.13;;;;;;;0.05;100.00;99442.97;5047346;28;20045;-66
2024/01/18 04:47:46;;;;;;;17.15;10.18;;;;;;;0.01;100.00;99438.31;5055178;28;20052;-66
2024/01/18 04:50:34;;;;;;;16.55;10.93;;;;;;;-0.01;100.00;99439.34;5047000;28;20044;-66
2024/01/18 04:53:22;;;;;;;17.83;10.63;;;;;;;-0.02;100.00;99444.97;5072518;28;20183;-67
2024/01/18 04:56:10;;;;;;;16.52;10.02;;;;;;;-0.07;100.00;99451.00;5075654;28;20076;-67
2024/01/18 04:58:58;;;;;;;14.43;9.82;;;;;;;-0.14;100.00;99444.94;5068935;28;20039;-67
2024/01/18 05:01:47;;;;;;;17.20;10.00;;;;;;;-0.16;100.00;99457.75;5095413;28;20553;-67
2024/01/18 05:04:35;;;;;;;15.30;9.48;;;;;;;-0.17;100.00;99464.13;5079152;28;20057;-67
2024/01/18 05:07:23;;;;;;;17.63;9.95;;;;;;;-0.19;100.00;99462.72;5045599;28;20046;-67
2024/01/18 05:10:11;;;;;;;17.60;10.02;;;;;;;-0.23;100.00;99465.88;5059848;28;20145;-67
2024/01/18 05:13:00;;;;;;;16.45;9.45;;;;;;;-0.22;100.00;99480.91;5067930;28;20043;-66
2024/01/18 05:15:48;;;;;;;16.77;9.88;;;;;;;-0.21;100.00;99476.38;5045728;28;20064;-65
2024/01/18 05:18:36;;;;;;;18.45;9.38;;;;;;;-0.19;100.00;99474.28;5059593;28;20048;-67
2024/01/18 05:21:24;;;;;;;15.82;9.20;;;;;;;-0.16;100.00;99473.00;5045626;28;20048;-67
2024/01/18 05:24:12;;;;;;;18.77;9.95;;;;;;;-0.13;100.00;99476.00;5078888;28;20048;-67
2024/01/18 05:27:00;;;;;;;16.63;9.70;;;;;;;-0.13;100.00;99477.88;5058675;28;20060;-65
2024/01/18 05:29:48;;;;;;;17.15;9.77;;;;;;;-0.16;100.00;99479.16;5073507;28;20064;-68
2024/01/18 05:32:36;;;;;;;19.33;9.57;;;;;;;-0.17;100.00;99488.22;5060458;28;20044;-66
2024/01/18 05:35:24;;;;;;;18.15;10.40;;;;;;;-0.19;100.00;99490.34;5073304;28;20130;-67
2024/01/18 05:38:12;;;;;;;15.65;10.13;;;;;;;-0.23;100.00;99494.50;5039382;28;20049;-66
2024/01/18 05:41:00;;;;;;;17.33;9.98;;;;;;;-0.24;100.00;99498.22;5039461;28;20421;-67
2024/01/18 05:43:48;;;;;;;17.95;10.10;;;;;;;-0.23;100.00;99503.34;5027048;28;20076;-64
2024/01/18 05:46:37;;;;;;;20.48;10.63;;;;;;;-0.26;100.00;99500.34;5053459;28;20048;-67
2024/01/18 05:49:26;;;;;;;16.60;9.82;;;;;;;-0.29;100.00;99516.81;5073034;28;20101;-67
2024/01/18 05:52:14;;;;;;;15.63;10.00;;;;;;;-0.30;100.00;99505.31;5096842;28;20056;-66
2024/01/18 05:55:04;;;;;;;16.73;10.25;;;;;;;-0.29;100.00;99509.63;5103720;28;20044;-67
2024/01/18 05:57:52;;;;;;;18.15;9.68;;;;;;;-0.28;100.00;99513.13;5066631;28;20051;-66
2024/01/18 06:00:41;;;;;;;15.77;9.73;;;;;;;-0.31;100.00;99527.78;5067005;28;20046;-67
2024/01/18 06:03:30;;;;;;;16.75;9.20;;;;;;;-0.33;100.00;99531.72;5087733;28;20053;-66
2024/01/18 06:06:18;;;;;;;16.30;9.38;;;;;;;-0.33;100.00;99537.91;5083772;28;20045;-67
2024/01/18 06:09:06;;;;;;;14.63;9.60;;;;;;;-0.33;100.00;99531.72;5061205;28;20386;-66
2024/01/18 06:11:54;;;;;;;17.27;9.05;;;;;;;-0.33;100.00;99539.75;5057196;28;20040;-68
2024/01/18 06:14:43;;;;;;;18.88;9.70;;;;;;;-0.38;100.00;99537.75;5057524;28;20064;-67
2024/01/18 06:17:32;;;;;;;19.13;9.57;;;;;;;-0.37;100.00;99544.75;5059283;28;20044;-66
2024/01/18 06:20:20;;;;;;;13.98;9.55;;;;;;;-0.43;100.00;99546.47;5043397;28;20036;-66
2024/01/18 06:23:08;;;;;;;17.55;10.52;;;;;;;-0.45;100.00;99561.94;5073299;28;20051;-68
2024/01/18 06:25:56;;;;;;;16.83;10.18;;;;;;;-0.44;100.00;99563.56;5063655;28;20051;-65
2024/01/18 06:28:44;;;;;;;17.58;9.38;;;;;;;-0.41;100.00;99564.16;5099711;28;20055;-68
2024/01/18 06:31:33;;;;;;;16.92;9.82;;;;;;;-0.39;100.00;99573.56;5071754;28;20041;-67
2024/01/18 06:34:21;;;;;;;17.95;10.15;;;;;;;-0.40;100.00;99579.19;5059882;28;20040;-70
2024/01/18 06:37:09;;;;;;;18.95;9.23;;;;;;;-0.38;100.00;99579.78;5051644;28;20159;-68
2024/01/18 06:39:57;;;;;;;16.67;9.45;;;;;;;-0.38;100.00;99587.81;5061009;28;20107;-68
2024/01/18 06:42:45;;;;;;;17.33;9.27;;;;;;;-0.40;100.00;99589.88;5045381;28;20055;-68
2024/01/18 06:45:34;;;;;;;15.20;8.88;;;;;;;-0.43;100.00;99591.97;5073669;28;20040;-67
2024/01/18 06:48:22;;;;;;;16.15;8.75;;;;;;;-0.46;100.00;99597.78;5071755;28;20044;-67
2024/01/18 06:51:14;;;;;;;14.30;8.82;;;;;;;-0.46;100.00;99594.25;5053591;28;20044;-65
2024/01/18 06:54:02;;;;;;;18.02;8.80;;;;;;;-0.48;100.00;99589.16;5097059;28;20471;-64
2024/01/18 06:56:51;;;;;;;14.52;8.55;;;;;;;-0.51;100.00;99594.94;5042521;28;20095;-66
2024/01/18 06:59:48;;;;;;;15.25;7.97;;;;;;;-0.54;100.00;99611.44;5040806;28;20559;-63
2024/01/18 07:02:39;;;;;;;16.75;8.80;;;;;;;-0.55;100.00;99604.47;5057305;28;20048;-67
2024/01/18 07:05:27;;;;;;;12.32;7.85;;;;;;;-0.62;100.00;99614.44;5063773;28;20048;-65
2024/01/18 07:08:15;;;;;;;17.85;8.68;;;;;;;-0.73;100.00;99618.66;5060850;28;20468;-67
2024/01/18 07:11:04;;;;;;;16.75;8.95;;;;;;;-0.78;100.00;99625.72;5088177;28;20123;-64
2024/01/18 07:13:52;;;;;;;17.30;9.45;;;;;;;-0.84;100.00;99621.25;5059416;28;20048;-67
2024/01/18 07:16:40;;;;;;;21.60;9.20;;;;;;;-0.89;100.00;99628.13;5076113;28;20078;-65
2024/01/18 07:19:28;;;;;;;15.95;8.43;;;;;;;-0.89;100.00;99636.13;5055946;28;20501;-66
2024/01/18 07:22:16;;;;;;;16.65;8.55;;;;;;;-0.84;100.00;99637.31;5061591;28;20049;-66
2024/01/18 07:25:05;;;;;;;17.73;8.55;;;;;;;-0.77;100.00;99640.72;5047554;28;20131;-65
2024/01/18 07:27:53;;;;;;;14.70;8.18;;;;;;;-0.72;100.00;99640.88;5046427;28;20052;-65
2024/01/18 07:30:41;;;;;;;17.13;7.90;;;;;;;-0.70;100.00;99649.50;5051865;28;20048;-65
2024/01/18 07:33:30;;;;;;;15.55;8.77;;;;;;;-0.68;100.00;99652.75;5082150;28;20044;-64
2024/01/18 07:36:18;;;;;;;16.95;8.57;;;;;;;-0.69;100.00;99653.81;5051527;28;20048;-64
2024/01/18 07:39:06;;;;;;;14.85;8.35;;;;;;;-0.70;100.00;99650.34;5074747;28;20040;-65
2024/01/18 07:41:54;;;;;;;16.20;8.10;;;;;;;-0.68;100.00;99650.91;5056851;28;20054;-66
2024/01/18 07:44:44;;;;;;;16.02;7.68;;;;;;;-0.63;100.00;99666.28;5080479;28;20097;-65
2024/01/18 07:47:33;;;;;;;16.63;8.07;;;;;;;-0.57;100.00;99673.44;5080910;28;20049;-66
2024/01/18 07:50:21;;;;;;;14.68;8.13;;;;;;;-0.55;100.00;99676.69;5088985;28;20051;-64
2024/01/18 07:53:23;;;;;;;19.80;9.55;;;;;;;-0.55;100.00;99687.41;5066321;28;20497;-65
2024/01/18 07:56:11;;;;;;;15.90;8.65;;;;;;;-0.54;100.00;99691.69;5094684;28;20051;-64
2024/01/18 07:58:59;;;;;;;14.95;8.20;;;;;;;-0.54;100.00;99690.88;5079937;28;20044;-64
2024/01/18 08:01:47;;;;;;;13.63;7.70;;;;;;;-0.50;100.00;99700.94;5055527;28;20115;-65
2024/01/18 08:04:35;;;;;;;15.35;7.75;;;;;;;-0.44;100.00;99712.59;5059529;28;20048;-64
2024/01/18 08:07:23;;;;;;;16.30;8.85;;;;;;;-0.44;100.00;99712.59;5073204;28;20142;-66
2024/01/18 08:10:11;;;;;;;16.80;8.05;;;;;;;-0.48;100.00;99722.09;5095497;28;20582;-65
2024/01/18 08:13:01;;;;;;;16.00;7.72;;;;;;;-0.55;100.00;99716.84;5080421;28;20040;-66
2024/01/18 08:15:50;;;;;;;16.75;7.55;;;;;;;-0.59;100.00;99725.53;5064433;28;20488;-66
2024/01/18 08:18:39;;;;;;;23.40;8.73;;;;;;;-0.59;100.00;99731.69;5073281;28;20048;-65
2024/01/18 08:21:27;;;;;;;18.50;8.38;;;;;;;-0.59;100.00;99725.53;5075785;28;20047;-63
2024/01/18 08:24:15;;;;;;;14.20;7.60;;;;;;;-0.56;100.00;99733.09;5066408;28;20072;-65
2024/01/18 08:27:03;;;;;;;16.92;8.18;;;;;;;-0.53;100.00;99730.81;5053472;28;20048;-64
2024/01/18 08:29:51;;;;;;;15.90;8.10;;;;;;;-0.48;100.00;99738.13;5074982;28;20040;-65
2024/01/18 08:32:39;;;;;;;16.90;8.23;;;;;;;-0.44;100.00;99739.34;5048037;28;20175;-64
2024/01/18 08:35:28;;;;;;;18.92;8.10;;;;;;;-0.43;100.00;99741.00;5079703;28;20048;-66
2024/01/18 08:38:16;;;;;;;12.77;6.93;;;;;;;-0.43;100.00;99747.16;5044455;28;20053;-65
2024/01/18 08:41:04;;;;;;;12.38;6.28;;;;;;;-0.41;100.00;99760.28;5070680;28;20055;-65
2024/01/18 08:43:52;;;;;;;12.02;6.82;;;;;;;-0.37;100.00;99763.38;5060604;28;20152;-64
2024/01/18 08:46:40;;;;;;;12.73;6.15;;;;;;;-0.35;100.00;99764.78;5060425;28;20135;-64
2024/01/18 08:49:28;;;;;;;11.00;5.68;;;;;;;-0.35;100.00;99772.81;5059101;28;20143;-65
2024/01/18 08:52:17;;;;;;;13.63;6.55;;;;;;;-0.44;100.00;99777.63;5057614;28;20064;-66
2024/01/18 08:55:05;;;;;;;12.85;7.15;;;;;;;-0.55;100.00;99781.03;5073730;28;20040;-65
2024/01/18 08:57:53;;;;;;;13.45;7.07;;;;;;;-0.55;100.00;99775.69;5072795;28;20047;-64
2024/01/18 09:00:41;;;;;;;13.77;7.15;;;;;;;-0.58;100.00;99792.16;5046537;28;20040;-64
2024/01/18 09:03:29;;;;;;;13.80;7.72;;;;;;;-0.64;100.00;99793.06;5083234;28;20449;-65
2024/01/18 09:06:18;;;;;;;14.82;7.68;;;;;;;-0.57;100.00;99793.81;5092977;28;20539;-65
2024/01/18 09:09:09;;;;;;;14.90;7.63;;;;;;;-0.51;100.00;99795.59;5069003;28;20507;-65
2024/01/18 09:11:58;;;;;;;14.50;7.32;;;;;;;-0.44;100.00;99803.56;5074807;28;20081;-64
2024/01/18 09:14:46;;;;;;;17.38;7.55;;;;;;;-0.39;100.00;99800.22;5016659;28;20048;-64
2024/01/18 09:17:34;;;;;;;13.98;6.40;;;;;;;-0.36;100.00;99810.47;5058445;28;20135;-63
2024/01/18 09:20:22;;;;;;;14.18;6.85;;;;;;;-0.32;100.00;99811.69;5059874;28;20400;-67
2024/01/18 09:23:11;;;;;;;14.52;6.55;;;;;;;-0.29;100.00;99819.25;5053919;28;20064;-65
2024/01/18 09:26:00;;;;;;;13.00;6.55;;;;;;;-0.24;100.00;99824.75;5041398;28;20064;-64
2024/01/18 09:28:49;;;;;;;10.73;6.15;;;;;;;-0.23;100.00;99832.59;5025963;28;20045;-66
2024/01/18 09:31:37;;;;;;;11.00;5.10;;;;;;;-0.23;100.00;99839.81;5052793;28;20056;-63
2024/01/18 09:34:30;;;;;;;14.23;6.20;;;;;;;-0.20;100.00;99844.69;5084202;28;20048;-65
2024/01/18 09:37:18;;;;;;;10.50;5.50;;;;;;;-0.18;100.00;99849.84;5079724;28;20043;-65
2024/01/18 09:40:11;;;;;;;17.45;6.43;;;;;;;-0.15;100.00;99855.56;5093368;28;20557;-67
2024/01/18 09:43:03;;;;;;;11.48;5.63;;;;;;;-0.10;100.00;99869.09;5092999;28;20050;-62
2024/01/18 09:45:52;;;;;;;8.23;5.15;;;;;;;-0.08;100.00;99872.38;5078823;28;20125;-64
2024/01/18 09:48:41;;;;;;;12.20;4.93;;;;;;;-0.04;100.00;99868.22;5093230;28;20051;-65
2024/01/18 09:51:29;;;;;;;10.63;5.28;;;;;;;-0.03;100.00;99885.91;5077545;28;20074;-64
2024/01/18 09:54:18;;;;;;;11.73;4.75;;;;;;;-0.02;100.00;99892.94;5093049;28;20043;-65
2024/01/18 09:57:08;;;;;;;12.18;4.47;;;;;;;-0.01;100.00;99888.38;5078639;28;20071;-65
2024/01/18 09:59:59;;;;;;;12.75;4.88;;;;;;;-0.01;100.00;99899.09;5064904;28;20056;-66
2024/01/18 10:02:47;;;;;;;12.70;4.88;;;;;;;0.06;100.00;99907.06;5093855;28;20040;-65
2024/01/18 10:05:36;;;;;;;9.68;4.43;;;;;;;0.11;100.00;99920.63;5080524;28;20071;-65
2024/01/18 10:08:24;;;;;;;10.77;4.82;;;;;;;0.13;100.00;99921.22;5078774;28;20397;-64
2024/01/18 10:11:12;;;;;;;10.30;3.75;;;;;;;0.23;100.00;99920.69;5076853;28;20040;-63
2024/01/18 10:14:02;;;;;;;7.88;3.88;;;;;;;0.34;100.00;99928.81;5078212;28;20105;-65
2024/01/18 10:16:50;;;;;;;7.25;3.60;;;;;;;0.47;100.00;99943.13;5093495;28;20044;-65
2024/01/18 10:19:38;;;;;;;10.63;4.13;;;;;;;0.49;100.00;99952.56;5065000;28;20534;-65
2024/01/18 10:22:27;;;;;;;12.57;4.00;;;;;;;0.45;100.00;99956.72;5091902;28;20048;-66
2024/01/18 10:25:15;;;;;;;11.80;3.88;;;;;;;0.39;100.00;99949.59;5075140;28;20106;-64
2024/01/18 10:28:03;;;;;;;10.55;3.50;;;;;;;0.37;100.00;99949.00;5091813;28;20468;-64
2024/01/18 10:30:53;;;;;;;7.72;3.90;;;;;;;0.36;100.00;99953.53;5092117;28;20044;-66
2024/01/18 10:33:42;;;;;;;13.75;4.18;;;;;;;0.36;100.00;99969.63;5078508;28;20082;-64
2024/01/18 10:36:30;;;;;;;10.20;3.67;;;;;;;0.38;100.00;99972.88;5092808;28;20044;-64
2024/01/18 10:39:19;;;;;;;9.63;3.75;;;;;;;0.44;100.00;99973.03;5078650;28;20121;-65
2024/01/18 10:42:08;;;;;;;7.85;3.50;;;;;;;0.46;100.00;99970.94;5062909;28;20504;-65
2024/01/18 10:44:57;;;;;;;9.57;3.50;;;;;;;0.48;100.00;99971.53;5090822;28;20044;-66
2024/01/18 10:47:45;;;;;;;10.23;3.75;;;;;;;0.51;100.00;99977.28;5064471;28;20509;-65
2024/01/18 10:50:33;;;;;;;8.60;3.53;;;;;;;0.56;100.00;99979.31;5051863;28;20124;-67
2024/01/18 10:53:26;;;;;;;7.80;3.35;;;;;;;0.60;100.00;99985.84;5031535;28;20393;-64
2024/01/18 10:56:14;;;;;;;8.85;3.47;;;;;;;0.64;100.00;99987.03;5034463;28;20098;-65
2024/01/18 10:59:04;;;;;;;8.30;3.97;;;;;;;0.70;100.00;99980.78;5071832;28;20040;-65
2024/01/18 11:01:53;;;;;;;10.45;3.63;;;;;;;0.73;100.00;99995.59;5056930;28;20049;-66
2024/01/18 11:04:42;;;;;;;8.38;4.03;;;;;;;0.77;100.00;99994.09;5004889;28;20514;-66
2024/01/18 11:07:31;;;;;;;10.52;4.40;;;;;;;0.79;100.00;99995.50;4997410;28;20053;-65
2024/01/18 11:10:20;;;;;;;7.03;3.63;;;;;;;0.84;100.00;100005.56;5055263;28;20182;-66
2024/01/18 11:13:09;;;;;;;8.93;3.55;;;;;;;0.83;100.00;100007.44;5056161;28;20132;-66
2024/01/18 11:15:57;;;;;;;9.15;3.58;;;;;;;0.85;100.00;100018.75;5059097;28;20452;-66
2024/01/18 11:18:52;;;;;;;7.93;3.53;;;;;;;0.89;100.00;100021.84;5051539;28;20041;-65
2024/01/18 11:21:43;;;;;;;10.70;3.75;;;;;;;0.92;100.00;100020.56;5036707;28;20080;-64
2024/01/18 11:24:31;;;;;;;9.35;3.60;;;;;;;0.96;100.00;100019.03;5037468;28;20033;-66
2024/01/18 11:27:21;;;;;;;11.48;3.60;;;;;;;0.99;100.00;100026.66;5052127;28;20060;-63
2024/01/18 11:30:36;;;;;;;8.68;3.83;;;;;;;1.03;100.00;100027.84;4341349;28;10000728;-65
2024/01/18 11:33:25;;;;;;;11.10;3.60;;;;;;;1.06;100.00;100030.09;5040498;28;20524;-65
2024/01/18 11:36:15;;;;;;;8.38;3.13;;;;;;;1.08;100.00;100032.53;5032460;28;20516;-66
2024/01/18 11:39:03;;;;;;;9.13;3.30;;;;;;;1.12;100.00;100039.09;5050889;28;20071;-66
2024/01/18 11:41:51;;;;;;;6.15;3.03;;;;;;;1.16;100.00;100042.97;5039016;28;20037;-66
2024/01/18 11:44:59;;;;;;;7.53;3.35;;;;;;;1.19;100.00;100043.31;5052263;28;20166;-68
2024/01/18 11:47:47;;;;;;;7.53;2.97;;;;;;;1.26;100.00;100044.06;5023215;28;20052;-68
2024/01/18 11:50:35;;;;;;;5.65;3.00;;;;;;;1.30;100.00;100048.97;5038250;28;20052;-67
2024/01/18 11:53:23;;;;;;;7.53;3.42;;;;;;;1.33;100.00;100056.59;5032492;28;20052;-65
2024/01/18 11:56:11;;;;;;;6.72;3.00;;;;;;;1.37;100.00;100065.81;5039458;28;20620;-65
2024/01/18 11:58:59;;;;;;;8.00;2.78;;;;;;;1.40;100.00;100070.75;5050360;28;20104;-66
2024/01/18 12:01:54;;;;;;;6.47;2.72;;;;;;;1.43;100.00;100076.47;5028071;28;20361;-65
2024/01/18 12:04:42;;;;;;;9.25;2.92;;;;;;;1.44;100.00;100069.22;5036316;28;20429;-62
2024/01/18 12:07:32;;;;;;;9.13;2.92;;;;;;;1.44;100.00;100078.13;5017685;28;20052;-64
2024/01/18 12:10:20;;;;;;;8.52;2.97;;;;;;;1.45;100.00;100090.47;5050475;28;20321;-69
2024/01/18 12:13:09;;;;;;;6.78;2.97;;;;;;;1.47;100.00;100087.59;5022325;28;20084;-66
2024/01/18 12:15:57;;;;;;;8.85;3.00;;;;;;;1.51;100.00;100088.75;5036739;28;21021;-66
2024/01/18 12:18:45;;;;;;;9.55;3.88;;;;;;;1.54;100.00;100092.84;5050964;28;20413;-64
2024/01/18 12:21:33;;;;;;;9.65;3.47;;;;;;;1.55;100.00;100105.25;5022338;28;20374;-65
2024/01/18 12:24:21;;;;;;;10.07;3.10;;;;;;;1.59;100.00;100111.78;5051399;28;20052;-65
2024/01/18 12:27:10;;;;;;;9.15;3.00;;;;;;;1.62;100.00;100114.03;5050788;28;20045;-67
2024/01/18 12:29:58;;;;;;;11.05;3.42;;;;;;;1.65;100.00;100111.69;5046868;28;20048;-65
2024/01/18 12:32:48;;;;;;;8.55;3.20;;;;;;;1.67;100.00;100109.59;5057448;28;20052;-66
2024/01/18 12:35:39;;;;;;;7.57;2.90;;;;;;;1.70;100.00;100114.50;5051981;28;20078;-66
2024/01/18 12:38:27;;;;;;;8.82;2.72;;;;;;;1.75;100.00;100126.44;5058625;28;20068;-68
2024/01/18 12:41:15;;;;;;;9.27;2.97;;;;;;;1.82;100.00;100117.25;5042726;28;20077;-65
2024/01/18 12:44:07;;;;;;;10.02;3.22;;;;;;;1.83;100.00;100120.78;5027479;28;20056;-64
2024/01/18 12:46:55;;;;;;;9.90;2.65;;;;;;;1.86;100.00;100118.44;5056500;28;20045;-66
2024/01/18 12:49:43;;;;;;;7.50;2.83;;;;;;;1.87;100.00;100120.06;5042444;28;20045;-62
2024/01/18 12:52:32;;;;;;;6.70;2.50;;;;;;;1.89;100.00;100117.16;5055717;28;21655;-65
2024/01/18 12:55:20;;;;;;;9.75;2.90;;;;;;;1.91;100.00;100131.19;5053900;28;20048;-66
2024/01/18 12:58:13;;;;;;;7.57;2.97;;;;;;;1.96;100.00;100134.00;5045846;28;20460;-64